Timeline UpdatesTrip UpdatesNews PostsPvt PostsTravel TipsAdmin PostsConv PostsFollowed PostsChat RequestsBlog PostsPNR Posts

Disclaimer
Search
 
 
Thu Oct 2, 2014 01:52:26 ISTHomeTrainsΣChainsAtlasPNRForumGalleryNewsFAQTripsMembersLoginFeedback
No Recent News for this Train
Other Trains in the News **new
Latest...
Permanent Augmentation of 1 3A coach wef 10/4/14
Fri Apr 04, 2014 (07:10PM)
⇐ Return Journey: Train# 11058

11057/Mumbai LTT - Amritsar (Pathankot) Express

Time-Table HAS CHANGED.
Sep 04 (10:14PM)
Change Departure Station:
Change Arrival Station:
Post a Train Travel TipPost a Train Travel Tip **new
Post a Comment/Question/Picture/VideoPost a Comment/Question/Picture/Video
Pantry/Catering
✕ NO Pantry Car
✓ Catering Avbl
RSA - Rake Sharing
No RSA
Rake/Coach Composition
LOCO-SLR-GEN-GEN-MILITARY-A1-B3-B2-B1-S8-S7-S6-S5-S4-S3-S2-S1-RMS-LDS-[B4-S9-S10-SLR]. ; [B4-S9-S10-SLR] -> Is the Slip portion for Dhule and bifurcates from the main train at Chalisgaon.
Loco
LTT-UMB --> GZB WAP-1/4/5/7 UMB-ASR --> TKD WDM3A/WDP3A
News    PNR    Forum    Time-Table    Availability    Fare Chart    Map    Arr/Dep History    Trips    Gallery    ΣChains    X/O    Timeline    
Travel Time: 13h 7m    31 halts    Distance: 531 km    Avg Speed: 40 km/hr
Type: Mail/Express
Zone: CR/Central
Departs @ 03:23 (Avg 48m late)
Platform# 2
SMTWTFS
Faridabad/FDB 
Arrives @ 16:30 (Avg 30m late)
Platform# 4
SMTWTFS
Amritsar Junction/ASR 

31 halts. 91 intermediate Stations between Faridabad and Amritsar Junction

Show ALL intermediate Stations  Show Old Time-Table

#CodeStation NameX/OArrivesAvgDepartsAvgHaltPFDay#KmSpeedElevZoneAddress
1LTTMumbai Lokmanya Tilak Terminus (5)  -23:45+331-1499.0437mCRMumbai - 400089, Maharashtra
2TNAThane (10)  00:07 00:08+600:10+53 2m72-1482.56110mCRThane (West) 400602, Maharashtra
3KYNKalyan Junction (8)  00:30+1600:35 00:33+195 3m42-1462.36210mCRKalyan 421301, Maharashtra
4KSRAKasara (4)XO  01:43 01:38+2101:45 01:40+272m12-1394.925290mCRDist. Thane 421602, Maharashtra
5IGPIgatpuri (4)X02:15+1902:20+255m22-1380.563589mCRIgatpuri 422403, Maharashtra
6DVLDevlali (3)X  03:08 03:03+2303:10 03:05+242m12-1335.669561mCRDist. Nashik 422401, Maharashtra
7NKNasik Road (3)XO  03:15 03:10+2603:20 03:15+255m12-1329.893563mCRNashik 422101, Maharashtra
8MMRManmad Junction (6)X  04:05 04:02+3204:10 04:05+315 3m22-1257.176580mCRManmad 423104, Maharashtra
9CSNChalisgaon Junction (3)X  05:03 04:58+2905:05 05:00+332m--2-1189.596352mCRChalisgaon 424101, Maharashtra
10PCPachora Junction (4)X  05:33 05:28+3705:35 05:30+372m--2-1144.787264mCRPachora 424201, Maharashtra
11JLJalgaon Junction (4)XO  06:08 06:03+3906:10 06:05+402m32-1097.058213mCRJalgaon 425001, Maharashtra
12BSLBhusaval Junction (8)X  06:40 06:30+3706:50 06:45+3810 15m62-1072.951208mCRBhusaval 425201, Maharashtra
13SAVSavda (2)XO  07:03+4107:05+412m--2-1057.4105220mCRSavda, Maharashtra
14NBNimbhora (2)XO  07:13 07:10+4407:15 07:12+432m--2-1048.776229mCRJalgaon, Maharashtra
15RVRaver (2)X  07:23 07:20+4507:25 07:22+452m--2-1038.676242mCRJalgaon, Maharashtra
16BAUBurhanpur (2)  07:43 07:38+4507:45 07:40+452m22-1018.487269mCRBurhanpur, Madhya Pradesh
17NPNRNepanagar (2)X  08:03 07:58+4808:05 08:00+482m--2-992.230289mCRState Highway 27, Madhya Pradesh
18KNWKhandwa Junction (5)X  09:35 09:25+609:40 09:30+105m22-949.541310mCRKhandwa, Madhya Pradesh
19TLVTalvadiya (2)XO  09:53+1009:55+132m--2-933.899308mWCRKhandwa, Madhya Pradesh
20CAERChhanera (2)XO  10:13+1910:15+222m--2-904.188283mWCRChhanera, Madhya Pradesh
21KKNKhirkiya (2)X  10:36+2310:38+302m22-873.473281mWCRSH 15, Madhya Pradesh
22HDHarda (3)  11:04+2911:06+292m--2-841.961289mWCRHarda, Madhya Pradesh
23TBNTimarni (2)  11:20+2811:22+372m--2-827.840308mWCRTimarni, Madhya Pradesh
24BPFBanapura (2)  12:04+1912:06+222m--2-799.551314mWCRBanapura, Madhya Pradesh
25ETItarsi Junction (7)X  12:50 12:45+1612:55 12:50+235m12-766.168329mWCRItarsi 461111, Madhya Pradesh
26HBDHoshangabad (2)X  13:13 13:06+2813:15 13:08+282m--2-748.042308mWCRHoshangabad, Madhya Pradesh
27BNIBudni (2)  13:25 13:18+3113:27 13:20+342m--2-741.049311mWCRSehore 466445 Madhya pradesh, Madhya Pradesh
28ODGObaidulla GanjO  14:03 13:58+4214:05 14:00+422m22-710.258 WCRObaidullaganj Raisen Dist., Madhya Pradesh
29MDDPMandi Dip (1)  14:19 14:14+4214:21 14:16+422m12-696.757 WCRMandideep, Madhya Pradesh
30HBJBhopal HabibGanj (5)X  14:38 14:33+4414:40 14:35+462m12-680.615496mWCRHabibGanj, Madhya Pradesh
31BPLBhopal Junction (6)  15:05 15:00+3615:10 15:05+415m22-674.474497mWCRBhopal, Madhya Pradesh
32SCISanchi (2)XO  15:41+4715:43+472m22-630.243428mWCRRaisen, Madhya Pradesh
33BHSVidisha (3)  15:56+4515:58+452m12-620.870 WCRVidisha, Madhya Pradesh
34GLGGulabhGanj (3)  16:16+4816:18+482m12-599.892 WCRVidisha, Madhya Pradesh
35BAQGanj Basoda (4)X  16:30+5216:32+512m12-581.571 WCRVidisha, Madhya Pradesh
36MABAMandi Bamora (3)XO  16:56+5116:58+512m12-553.025413mWCRState Highway 14, Madhya Pradesh
37BINABina Junction (5)X  17:40+2617:45+275m32-535.858414mWCRJn Pt - KATNI/GUNA/ BPL/JHS, Madhya Pradesh
38DUADhaura (3)X  18:21+3318:23+332m--2-501.258407mNCRDhaura Tanda, Madhya Pradesh
39JLNJakhalaun (3)  18:36 18:35+3118:37+321 2m12-489.672394mNCRLalitpur(05176-272220), Uttar Pradesh
40LARLalitpur (3)  18:51+3218:53+322m32-472.986373mNCRLalitpur, Uttar Pradesh
41TBTTalbahat (4)X  19:21+3619:23+362m32-433.059314mNCRKhaniyadhana Station Rd, Madhya Pradesh
42BZYBasai (3)X  19:36+3619:38+362m22-420.260287mNCR07522289600(Gate ManMob. - 9452701575), Madhya Pradesh
43BABBabina (3)X  19:50+3719:52+372m12-408.140285mNCRBabina, Uttar Pradesh
44JHSJhansi Junction (7)X  20:30+3020:38+348m52-382.668259mNCRJhansi, Uttar Pradesh
45DAADatia (2)X  21:00+3821:02+392m--2-357.563264mNCRDatia, Madhya Pradesh
46SORSonagir (2)X  21:13+3921:15+402m--2-346.071211mNCRDatia, Madhya Pradesh
47DBADabra (3)X  21:31+4221:33+422m--2-327.269 NCRDabra(District-Gwalior), Madhya Pradesh
48GWLGwalior Junction (4)X  22:10+4422:18+418m22-284.893214mNCRGwalior, Madhya Pradesh
49MRAMorena (3)X  22:43+5022:45+502m22-246.370176mNCRMorena, Madhya Pradesh
50DHODholpur Junction (3)X  23:08+4023:10+412m12-219.454177mNCRDholpur, Rajasthan
51AGCAgra Cantt. (6)X  00:08+4800:18 00:16+5110 8m23-166.927174mNCRAgra, Uttar Pradesh
52RKMRaja Ki Mandi (4)  00:25+5700:27+572m13-162.869170mNCRAgra, Uttar Pradesh
53MTJMathura Junction (10)  01:10+1:0101:20 01:15+5910 5m33-113.275179mNCRMathura, Uttar Pradesh
54KSVKosi Kalan (3)  01:48+1:0201:50+1:022m13-71.744189mNCRKosi Kalan, Uttar Pradesh
55PWLPalwal (8)  02:48+3802:50+422m--3-29.271200mNRPalwal, Haryana
56BVHBallabgarh (5)  03:08+4603:10+462m33-8.144203mNRFaridabad, Haryana
57FDBFaridabad (4)»  03:21+4803:23+482m230.052206mNRold Faridabad, Haryana
58NZMDelhi Hazrat Nizamuddin (7)O  03:47+5303:49+532m3320.817209mNRNew Delhi 110013, Delhi NCT
59NDLSNew Delhi (16)  04:10 04:15+5504:30+5420 15m2328.215215mNRNew Delhi, Delhi NCT
60SZMDelhi Sabzi Mandi (2)  04:46+5604:48+562m--332.349220mNRGulabi Bagh, Delhi NCT
61BHDBadli (2)XO  05:01+5905:03+1:002m--342.951217mNRRohini, Delhi NCT
62NURNarela (2)X  05:17 05:18+1:0605:19 05:20+1:092m--355.637222mNRNarela, Delhi NCT
63SNPSonipat (3)X  05:46 05:48+1:0105:48 05:50+1:042m--372.660225mNRSonipat, Haryana
64GNUGanaur  06:00 06:06+1:0806:02 06:08+1:102m--388.557222mNRGanaur, Haryana
65SMKSamalkha (3)  06:21+1:0306:23+1:052m--3100.854229mNRSamalkha, Haryana
66PNPPanipat Junction (5)  06:38 06:42+1:0506:40 06:44+1:062m33117.864235mNRPanipat, Haryana
67GRAGharaunda (2)  07:00+1:0207:02+1:062m--3134.766244mNRGharaunda, Haryana
68KUNKarnal (3)X  07:18+1:0607:20+1:062m23152.252253mNRKarnal, Haryana
69TRRTaraori (2)X  07:34+1:0507:36 07:35+1:052 1m--3164.326255mNRTaraori, Haryana
70NLKRNilokheri (2)XO  07:44+1:0007:46 07:45+1:002 1m--3168.234254mNRNilokheri, Haryana
71KKDEKurukshetra Junction (3)  08:20 08:15+4108:22 08:17+422m13185.378260mNRKurukshetra, Haryana
72SHDMShahbad Markanda (2)X  08:43 08:34+5108:45 08:36+532m23207.527267mNRShahabad Markanda, Haryana
73UMBAmbala Cantt. Junction (7)X09:20+4209:40+4920m63227.438278mNRAmbala 133001, Haryana
74UBCAmbala City (3)X  09:52+5409:54+552m33235.082273mNRNH-1, Haryana
75RPJRajpura Junction (3)  10:11 10:09+5610:13 10:11+572m13255.555272mNRNH-1, Punjab
76PTAPatiala (4)X  10:35 10:38+1:0610:40+1:065 2m13280.352256mNRPatiala, Punjab
77NBANabha (1)  11:08 11:10+1:0411:10 11:12+1:042m13306.149250mNRNabha, Punjab
78DUIDhuri Junction (4)  11:45+5911:50+595m--3333.172248mNRDhuri, Punjab
79METMalerkotla (2)X  12:07 12:04+1:0212:09 12:06+1:032m13349.928248mNRMalerkotla., Punjab
80AHHAhmadgarh (1)  12:48+4412:50+442m13369.744256mNRAhmedgarh, Punjab
81LDHLudhiana Junction (7)X  13:25+5113:35+5510m33395.134246mNRLudhiana 141001, Punjab
82PHRPhillaur Junction (3)X  13:58+5714:00+572m23408.264246mNRPhillaur, Punjab
83GRYGoraya (2)X  14:12+5714:14+572m23421.054240mNRGoraya, Punjab
84PGWPhagwara Junction (3)X  14:25+4914:27+492m23430.870245mNRPhagwara, Punjab
85JRCJalandhar Cantt. Junction (3)X  14:41+5414:43+542m13447.124239mNRNear Rama Mandi, Punjab
86JUCJalandhar City Junction (5)  14:55+4915:00+515m13451.956239mNRJalandhar 144001, Punjab
87BEASBeas Junction (2)X  15:39+4315:41+432m13488.080238mNRBeas, Punjab
88JNLJandiala (2)X  15:59+4316:01+432m13511.940238mNRJandiala, Punjab
89ASRAmritsar Junction (5)•  16:30+30-43531.1-233mNRAmritsar 143002, Punjab
Scroll to Top
Scroll to Bottom